createdAt,value
2024-04-30T00:01:25.039Z,2.40
2024-04-30T00:04:12.614Z,2.25
2024-04-30T00:06:59.704Z,2.38
2024-04-30T00:09:46.636Z,2.53
2024-04-30T00:12:33.707Z,2.63
2024-04-30T00:15:20.634Z,2.60
2024-04-30T00:18:07.610Z,2.58
2024-04-30T00:20:54.575Z,2.50
2024-04-30T00:23:41.608Z,2.30
2024-04-30T00:26:28.561Z,2.35
2024-04-30T00:29:15.806Z,2.53
2024-04-30T00:32:02.878Z,2.40
2024-04-30T00:34:50.001Z,2.45
2024-04-30T00:37:37.329Z,2.58
2024-04-30T00:40:24.381Z,2.17
2024-04-30T00:43:11.405Z,2.50
2024-04-30T00:45:58.411Z,2.60
2024-04-30T00:48:45.564Z,2.63
2024-04-30T00:51:32.709Z,2.70
2024-04-30T00:54:20.341Z,2.80
2024-04-30T00:57:08.087Z,2.80
2024-04-30T00:59:55.100Z,2.60
2024-04-30T01:02:42.132Z,2.47
2024-04-30T01:05:29.115Z,2.90
2024-04-30T01:08:16.055Z,2.25
2024-04-30T01:11:03.277Z,2.50
2024-04-30T01:13:50.232Z,2.80
2024-04-30T01:16:37.249Z,2.78
2024-04-30T01:19:24.268Z,2.60
2024-04-30T01:22:11.238Z,2.80
2024-04-30T01:24:58.305Z,2.58
2024-04-30T01:27:45.288Z,2.72
2024-04-30T01:30:32.255Z,2.75
2024-04-30T01:33:19.646Z,2.60
2024-04-30T01:36:06.729Z,2.50
2024-04-30T01:38:53.655Z,2.70
2024-04-30T01:41:43.592Z,2.70
2024-04-30T01:44:31.065Z,2.50
2024-04-30T01:47:18.019Z,2.40
2024-04-30T01:50:07.062Z,2.97
2024-04-30T01:52:54.152Z,2.63
2024-04-30T01:55:41.258Z,2.53
2024-04-30T01:58:28.296Z,2.70
2024-04-30T02:01:18.503Z,2.83
2024-04-30T02:04:05.849Z,2.60
2024-04-30T02:06:52.792Z,2.63
2024-04-30T02:09:39.748Z,2.70
2024-04-30T02:12:26.954Z,2.70
2024-04-30T02:15:13.932Z,2.85
2024-04-30T02:18:00.911Z,2.83
2024-04-30T02:20:47.914Z,2.83
2024-04-30T02:23:34.880Z,2.75
2024-04-30T02:26:21.856Z,2.95
2024-04-30T02:29:08.940Z,2.90
2024-04-30T02:32:14.520Z,3.00
2024-04-30T02:35:01.489Z,3.00
2024-04-30T02:37:48.442Z,2.70
2024-04-30T02:40:35.512Z,2.75
2024-04-30T02:43:22.563Z,2.85
2024-04-30T02:46:09.600Z,2.85
2024-04-30T02:48:56.542Z,2.80
2024-04-30T02:51:43.518Z,3.00
2024-04-30T02:54:30.476Z,2.80
2024-04-30T02:57:17.413Z,2.90
2024-04-30T03:00:04.686Z,2.78
2024-04-30T03:02:51.654Z,2.75
2024-04-30T03:05:38.584Z,2.67
2024-04-30T03:08:25.579Z,2.80
2024-04-30T03:11:12.559Z,2.85
2024-04-30T03:13:59.554Z,2.60
2024-04-30T03:16:46.497Z,2.75
2024-04-30T03:19:35.770Z,2.63
2024-04-30T03:22:24.591Z,2.83
2024-04-30T03:25:11.758Z,2.80
2024-04-30T03:28:02.180Z,3.10
2024-04-30T03:30:52.135Z,2.80
2024-04-30T03:33:39.215Z,2.53
2024-04-30T03:36:26.338Z,3.05
2024-04-30T03:39:13.671Z,2.60
2024-04-30T03:42:00.961Z,2.70
2024-04-30T03:44:50.370Z,2.70
2024-04-30T03:47:37.534Z,3.00
2024-04-30T03:50:24.857Z,2.90
2024-04-30T03:53:11.850Z,2.90
2024-04-30T03:55:58.789Z,2.72
2024-04-30T03:58:45.857Z,3.15
2024-04-30T04:01:33.366Z,3.08
2024-04-30T04:04:20.442Z,3.05
2024-04-30T04:07:07.666Z,2.80
2024-04-30T04:09:54.724Z,3.22
2024-04-30T04:13:00.424Z,3.00
2024-04-30T04:15:47.408Z,3.30
2024-04-30T04:18:34.489Z,3.00
2024-04-30T04:21:23.980Z,2.92
2024-04-30T04:24:11.288Z,2.80
2024-04-30T04:26:58.222Z,3.00
2024-04-30T04:29:45.191Z,3.17
2024-04-30T04:32:32.502Z,3.25
2024-04-30T04:35:19.693Z,3.10
2024-04-30T04:38:06.675Z,3.20
2024-04-30T04:40:53.611Z,3.38
2024-04-30T04:43:40.770Z,3.13
2024-04-30T04:46:27.805Z,3.20
2024-04-30T04:49:14.780Z,3.22
2024-04-30T04:52:01.875Z,3.13
2024-04-30T04:54:48.939Z,3.33
2024-04-30T04:57:35.969Z,3.40
2024-04-30T05:00:25.067Z,3.47
2024-04-30T05:03:13.659Z,3.47
2024-04-30T05:06:02.351Z,3.47
2024-04-30T05:11:36.221Z,3.90
2024-04-30T05:14:23.273Z,3.80
2024-04-30T05:17:10.461Z,3.40
2024-04-30T05:19:57.493Z,3.50
2024-04-30T05:22:44.457Z,3.75
2024-04-30T05:25:31.457Z,3.97
2024-04-30T05:28:18.460Z,3.80
2024-04-30T05:31:05.501Z,3.60
2024-04-30T05:33:52.470Z,3.63
2024-04-30T05:36:39.694Z,3.63
2024-04-30T05:39:26.796Z,3.63
2024-04-30T05:42:13.892Z,3.60
2024-04-30T05:45:01.104Z,3.40
2024-04-30T05:47:48.156Z,3.50
2024-04-30T05:50:35.208Z,3.80
2024-04-30T05:53:22.173Z,3.85
2024-04-30T05:56:09.158Z,4.35
2024-04-30T05:58:56.105Z,4.05
2024-04-30T06:01:43.103Z,3.88
2024-04-30T06:04:30.213Z,3.70
2024-04-30T06:07:17.287Z,3.83
2024-04-30T06:10:04.607Z,3.78
2024-04-30T06:12:51.998Z,3.80
2024-04-30T06:15:38.957Z,3.92
2024-04-30T06:18:26.137Z,3.67
2024-04-30T06:21:19.881Z,3.40
2024-04-30T06:24:10.745Z,3.65
2024-04-30T06:26:57.687Z,3.72
2024-04-30T06:29:44.622Z,3.50
2024-04-30T06:32:31.593Z,3.80
2024-04-30T06:35:18.565Z,4.20
2024-04-30T06:38:05.671Z,3.75
2024-04-30T06:40:52.774Z,3.60
2024-04-30T06:43:39.933Z,3.55
2024-04-30T06:46:26.992Z,3.88
2024-04-30T06:49:13.987Z,3.60
2024-04-30T06:52:00.996Z,3.58
2024-04-30T06:54:47.944Z,3.40
2024-04-30T06:57:34.890Z,3.50
2024-04-30T07:00:21.843Z,3.72
2024-04-30T07:03:12.080Z,3.55
2024-04-30T07:05:59.093Z,3.50
2024-04-30T07:08:46.972Z,3.43
2024-04-30T07:11:34.079Z,3.28
2024-04-30T07:14:21.062Z,3.25
2024-04-30T07:17:09.191Z,3.20
2024-04-30T07:19:56.678Z,3.17
2024-04-30T07:22:43.713Z,3.00
2024-04-30T07:25:33.191Z,2.92
2024-04-30T07:28:20.234Z,3.20
2024-04-30T07:31:07.318Z,3.38
2024-04-30T07:33:54.331Z,3.20
2024-04-30T07:36:41.326Z,2.80
2024-04-30T07:39:28.275Z,2.70
2024-04-30T07:42:15.210Z,2.90
2024-04-30T07:45:02.193Z,2.85
2024-04-30T07:47:51.449Z,2.60
2024-04-30T07:50:38.869Z,2.45
2024-04-30T07:53:25.811Z,2.70
2024-04-30T07:56:12.764Z,2.60
2024-04-30T07:58:59.759Z,2.50
2024-04-30T08:01:46.848Z,2.70
2024-04-30T08:04:34.498Z,2.50
2024-04-30T08:07:21.508Z,2.35
2024-04-30T08:10:08.569Z,2.40
2024-04-30T08:12:55.556Z,2.67
2024-04-30T08:15:42.552Z,2.60
2024-04-30T08:18:29.509Z,2.30
2024-04-30T08:21:16.812Z,2.42
2024-04-30T08:24:04.010Z,2.60
2024-04-30T08:26:50.987Z,2.50
2024-04-30T08:29:38.078Z,2.28
2024-04-30T08:32:25.551Z,2.20
2024-04-30T08:35:12.598Z,1.95
2024-04-30T08:38:01.331Z,2.30
2024-04-30T08:40:49.422Z,2.00
2024-04-30T08:43:37.644Z,2.50
2024-04-30T08:46:25.568Z,2.40
2024-04-30T08:49:20.077Z,2.10
2024-04-30T08:52:11.314Z,2.40
2024-04-30T08:54:58.743Z,2.28
2024-04-30T08:57:45.970Z,2.40
2024-04-30T09:00:33.120Z,2.33
2024-04-30T09:03:25.184Z,2.42
2024-04-30T09:06:12.494Z,1.95
2024-04-30T09:08:59.521Z,2.40
2024-04-30T09:11:46.943Z,2.20
2024-04-30T09:14:43.370Z,2.08
2024-04-30T09:17:33.266Z,2.20
2024-04-30T09:20:21.345Z,1.88
2024-04-30T09:23:08.303Z,2.00
2024-04-30T09:25:56.042Z,2.13
2024-04-30T09:28:43.805Z,2.33
2024-04-30T09:31:38.111Z,1.90
2024-04-30T09:34:25.224Z,2.13
2024-04-30T09:37:22.701Z,2.25
2024-04-30T09:40:10.234Z,2.20
2024-04-30T09:42:57.476Z,2.30
2024-04-30T09:45:44.434Z,2.13
2024-04-30T09:48:31.921Z,1.95
2024-04-30T09:51:19.253Z,2.33
2024-04-30T09:54:06.277Z,2.08
2024-04-30T09:56:54.413Z,2.03
2024-04-30T09:59:42.102Z,2.40
2024-04-30T10:02:30.302Z,1.90
2024-04-30T10:05:32.106Z,2.22
2024-04-30T10:08:20.232Z,2.20
2024-04-30T10:11:08.126Z,2.10
2024-04-30T10:13:55.860Z,2.35
2024-04-30T10:16:58.530Z,2.15
2024-04-30T10:19:47.394Z,2.10
2024-04-30T10:22:38.278Z,2.20
2024-04-30T10:25:25.753Z,2.08
2024-04-30T10:28:15.157Z,2.10
2024-04-30T10:31:12.796Z,2.10
2024-04-30T10:34:08.179Z,2.13
2024-04-30T10:36:55.188Z,2.40
2024-04-30T10:39:42.324Z,2.13
2024-04-30T10:42:34.475Z,2.13
2024-04-30T10:45:22.971Z,2.10
2024-04-30T10:48:10.944Z,2.30
2024-04-30T10:51:01.225Z,1.95
2024-04-30T10:53:49.368Z,2.10
2024-04-30T10:56:36.349Z,2.33
2024-04-30T10:59:27.662Z,2.70
2024-04-30T11:02:18.835Z,1.92
2024-04-30T11:05:15.704Z,2.10
2024-04-30T11:08:03.466Z,2.38
2024-04-30T11:10:50.571Z,2.05
2024-04-30T11:13:37.819Z,1.80
2024-04-30T11:16:24.823Z,1.63
2024-04-30T11:19:13.260Z,1.50
2024-04-30T11:22:00.435Z,1.70
2024-04-30T11:24:47.416Z,1.70
2024-04-30T11:27:34.385Z,1.67
2024-04-30T11:30:21.356Z,1.40
2024-04-30T11:33:08.422Z,1.58
2024-04-30T11:35:55.415Z,1.70
2024-04-30T11:38:44.177Z,1.63
2024-04-30T11:41:31.166Z,1.77
2024-04-30T11:44:18.108Z,1.60
2024-04-30T11:47:07.081Z,1.58
2024-04-30T11:49:54.081Z,1.88
2024-04-30T11:52:41.152Z,1.60
2024-04-30T11:55:28.294Z,1.50
2024-04-30T11:58:17.888Z,1.77
2024-04-30T12:01:05.280Z,1.70
2024-04-30T12:03:52.374Z,1.70
2024-04-30T12:06:39.664Z,1.80
2024-04-30T12:09:26.947Z,1.70
2024-04-30T12:12:13.939Z,1.70
2024-04-30T12:15:00.939Z,1.90
2024-04-30T12:17:48.047Z,1.70
2024-04-30T12:20:35.078Z,1.67
2024-04-30T12:23:22.069Z,1.58
2024-04-30T12:26:09.808Z,1.52
2024-04-30T12:28:56.839Z,1.70
2024-04-30T12:31:44.270Z,1.58
2024-04-30T12:34:31.496Z,1.70
2024-04-30T12:37:20.233Z,1.65
2024-04-30T12:40:08.772Z,2.00
2024-04-30T12:42:55.756Z,1.80
2024-04-30T12:45:42.931Z,1.90
2024-04-30T12:48:29.972Z,1.50
2024-04-30T12:51:17.707Z,1.85
2024-04-30T12:54:04.983Z,1.65
2024-04-30T12:56:52.011Z,1.70
2024-04-30T12:59:40.550Z,1.70
2024-04-30T13:02:27.969Z,1.75
2024-04-30T13:05:15.376Z,1.80
2024-04-30T13:08:02.632Z,1.63
2024-04-30T13:10:50.072Z,1.70
2024-04-30T13:13:38.083Z,1.75
2024-04-30T13:16:25.296Z,1.80
2024-04-30T13:19:12.519Z,1.67
2024-04-30T13:21:59.771Z,1.80
2024-04-30T13:24:48.264Z,1.80
2024-04-30T13:27:35.675Z,1.60
2024-04-30T13:30:23.045Z,1.67
2024-04-30T13:33:12.158Z,1.70
2024-04-30T13:35:59.463Z,1.60
2024-04-30T13:38:46.587Z,1.63
2024-04-30T13:41:34.219Z,1.73
2024-04-30T13:44:21.252Z,1.65
2024-04-30T13:47:08.373Z,1.67
2024-04-30T13:49:55.746Z,1.90
2024-04-30T13:52:42.930Z,1.92
2024-04-30T13:55:29.978Z,1.80
2024-04-30T13:58:17.012Z,1.95
2024-04-30T14:01:04.171Z,1.70
2024-04-30T14:03:51.382Z,1.33
2024-04-30T14:06:39.575Z,1.70
2024-04-30T14:12:16.716Z,1.60
2024-04-30T14:15:04.216Z,1.40
2024-04-30T14:17:51.221Z,1.70
2024-04-30T14:20:38.206Z,1.50
2024-04-30T14:23:26.291Z,1.65
2024-04-30T14:29:10.193Z,1.60
2024-04-30T14:31:57.324Z,1.50
2024-04-30T14:34:44.349Z,1.50
2024-04-30T14:37:31.467Z,1.63
2024-04-30T14:40:18.497Z,1.33
2024-04-30T14:43:05.533Z,1.70
2024-04-30T14:45:52.594Z,1.65
2024-04-30T14:48:39.737Z,1.63
2024-04-30T14:51:36.495Z,1.47
2024-04-30T14:54:23.536Z,1.55
2024-04-30T14:57:10.462Z,1.70
2024-04-30T14:59:57.381Z,1.83
2024-04-30T15:02:44.457Z,1.75
2024-04-30T15:05:32.892Z,1.90
2024-04-30T15:08:20.062Z,1.63
2024-04-30T15:11:18.305Z,1.63
2024-04-30T15:14:05.411Z,1.52
2024-04-30T15:16:52.545Z,1.60
2024-04-30T15:19:39.984Z,1.70
2024-04-30T15:22:26.993Z,1.50
2024-04-30T15:25:14.147Z,1.67
2024-04-30T15:28:01.141Z,1.80
2024-04-30T15:30:48.157Z,1.42
2024-04-30T15:33:36.567Z,1.70
2024-04-30T15:36:23.702Z,1.70
2024-04-30T15:39:10.711Z,1.60
2024-04-30T15:41:57.978Z,1.60
2024-04-30T15:44:44.963Z,1.70
2024-04-30T15:47:31.960Z,1.65
2024-04-30T15:50:19.136Z,1.52
2024-04-30T15:53:06.081Z,1.80
2024-04-30T15:56:05.257Z,1.80
2024-04-30T15:58:59.967Z,1.80
2024-04-30T16:01:47.053Z,1.60
2024-04-30T16:04:34.196Z,1.60
2024-04-30T16:07:21.324Z,1.80
2024-04-30T16:10:08.567Z,1.80
2024-04-30T16:12:56.673Z,1.50
2024-04-30T16:18:30.627Z,1.70
2024-04-30T16:21:17.655Z,1.60
2024-04-30T16:24:06.855Z,1.60
2024-04-30T16:26:54.977Z,1.90
2024-04-30T16:32:29.451Z,1.80
2024-04-30T16:35:16.519Z,1.60
2024-04-30T16:38:03.541Z,1.83
2024-04-30T16:40:50.530Z,1.60
2024-04-30T16:43:37.473Z,1.77
2024-04-30T16:46:24.505Z,1.80
2024-04-30T16:49:11.504Z,1.90
2024-04-30T16:51:58.597Z,1.67
2024-04-30T16:54:45.722Z,1.42
2024-04-30T16:57:32.799Z,1.80
2024-04-30T17:00:20.106Z,1.70
2024-04-30T17:03:07.168Z,1.80
2024-04-30T17:05:54.189Z,2.00
2024-04-30T17:08:41.689Z,1.85
2024-04-30T17:11:28.647Z,1.75
2024-04-30T17:14:15.607Z,1.70
2024-04-30T17:17:02.750Z,1.98
2024-04-30T17:19:49.753Z,1.80
2024-04-30T17:22:37.583Z,1.98
2024-04-30T17:25:24.538Z,1.67
2024-04-30T17:28:11.480Z,1.92
2024-04-30T17:30:58.534Z,1.92
2024-04-30T17:33:46.773Z,1.90
2024-04-30T17:36:39.240Z,1.77
2024-04-30T17:39:26.227Z,2.40
2024-04-30T17:42:13.176Z,1.90
2024-04-30T17:45:00.161Z,1.85
2024-04-30T17:47:47.315Z,2.10
2024-04-30T17:50:34.699Z,1.73
2024-04-30T17:53:22.605Z,1.80
2024-04-30T17:56:09.571Z,2.00
2024-04-30T17:58:56.528Z,2.15
2024-04-30T18:01:44.488Z,2.05
2024-04-30T18:04:31.581Z,2.17
2024-04-30T18:07:18.560Z,2.00
2024-04-30T18:10:05.628Z,1.83
2024-04-30T18:12:52.653Z,1.98
2024-04-30T18:15:39.760Z,2.25
2024-04-30T18:18:27.710Z,2.40
2024-04-30T18:21:22.263Z,2.25
2024-04-30T18:24:09.276Z,1.90
2024-04-30T18:26:56.221Z,2.33
2024-04-30T18:29:43.256Z,2.10
2024-04-30T18:32:30.275Z,2.10
2024-04-30T18:35:17.296Z,2.30
2024-04-30T18:38:05.489Z,2.20
2024-04-30T18:40:52.500Z,2.03
2024-04-30T18:43:41.162Z,2.10
2024-04-30T18:46:28.301Z,2.50
2024-04-30T18:49:15.458Z,2.60
2024-04-30T18:52:02.581Z,2.70
2024-04-30T18:54:49.638Z,2.55
2024-04-30T18:57:37.121Z,3.00
2024-04-30T19:00:24.139Z,2.55
2024-04-30T19:03:12.093Z,3.28
2024-04-30T19:05:59.105Z,3.15
2024-04-30T19:08:46.380Z,2.38
2024-04-30T19:11:33.537Z,2.55
2024-04-30T19:14:20.701Z,2.20
2024-04-30T19:17:07.774Z,2.38
2024-04-30T19:19:54.715Z,2.22
2024-04-30T19:22:41.993Z,2.20
2024-04-30T19:25:29.048Z,2.57
2024-04-30T19:28:16.010Z,2.45
2024-04-30T19:31:03.065Z,2.03
2024-04-30T19:33:50.202Z,2.40
2024-04-30T19:36:37.302Z,3.03
2024-04-30T19:39:24.364Z,3.00
2024-04-30T19:42:11.400Z,3.78
2024-04-30T19:44:58.382Z,3.92
2024-04-30T19:47:45.382Z,3.28
2024-04-30T19:50:32.432Z,3.08
2024-04-30T19:53:19.366Z,2.97
2024-04-30T19:56:06.913Z,2.70
2024-04-30T19:58:57.401Z,2.45
2024-04-30T20:01:45.569Z,3.17
2024-04-30T20:04:32.605Z,4.78
2024-04-30T20:07:19.605Z,6.00
2024-04-30T20:10:06.980Z,11.95
2024-04-30T20:12:54.491Z,11.83
2024-04-30T20:15:41.691Z,10.25
2024-04-30T20:18:28.674Z,12.50
2024-04-30T20:21:16.514Z,10.45
2024-04-30T20:24:03.864Z,9.27
2024-04-30T20:26:50.826Z,8.67
2024-04-30T20:29:37.967Z,8.25
2024-04-30T20:32:25.022Z,5.80
2024-04-30T20:35:12.067Z,6.35
2024-04-30T20:37:59.023Z,5.13
2024-04-30T20:40:45.976Z,5.15
2024-04-30T20:43:33.024Z,4.40
2024-04-30T20:46:20.509Z,4.07
2024-04-30T20:49:07.633Z,4.53
2024-04-30T20:51:54.870Z,4.20
2024-04-30T20:54:41.911Z,3.17
2024-04-30T20:57:28.901Z,3.38
2024-04-30T21:00:16.321Z,3.40
2024-04-30T21:03:03.530Z,3.70
2024-04-30T21:05:50.670Z,3.28
2024-04-30T21:08:38.564Z,2.90
2024-04-30T21:11:26.005Z,2.80
2024-04-30T21:14:13.050Z,3.03
2024-04-30T21:17:02.244Z,2.70
2024-04-30T21:19:52.247Z,2.67
2024-04-30T21:22:39.321Z,2.60
2024-04-30T21:25:26.336Z,2.42
2024-04-30T21:28:13.332Z,2.88
2024-04-30T21:31:00.371Z,2.85
2024-04-30T21:33:47.453Z,2.83
2024-04-30T21:36:35.038Z,2.65
2024-04-30T21:39:22.046Z,2.70
2024-04-30T21:42:09.016Z,2.70
2024-04-30T21:44:57.946Z,2.60
2024-04-30T21:47:45.187Z,2.35
2024-04-30T21:50:32.226Z,2.60
2024-04-30T21:53:19.232Z,2.58
2024-04-30T21:56:06.425Z,2.70
2024-04-30T21:58:53.372Z,2.55
2024-04-30T22:01:46.207Z,2.40
2024-04-30T22:04:33.832Z,2.60
2024-04-30T22:07:21.798Z,2.70
2024-04-30T22:10:08.758Z,2.53
2024-04-30T22:12:55.786Z,2.40
2024-04-30T22:15:44.273Z,2.70
2024-04-30T22:18:32.384Z,2.83
2024-04-30T22:21:21.188Z,2.78
2024-04-30T22:24:09.691Z,2.63
2024-04-30T22:26:56.663Z,2.50
2024-04-30T22:29:43.624Z,2.30
2024-04-30T22:32:30.680Z,2.70
2024-04-30T22:35:17.784Z,2.78
2024-04-30T22:38:04.993Z,2.65
2024-04-30T22:40:52.293Z,2.50
2024-04-30T22:43:39.378Z,2.77
2024-04-30T22:46:26.329Z,2.70
2024-04-30T22:49:13.387Z,2.60
2024-04-30T22:52:00.392Z,2.85
2024-04-30T22:54:50.968Z,3.05
2024-04-30T22:57:38.353Z,3.13
2024-04-30T23:00:25.499Z,3.25
2024-04-30T23:03:12.529Z,3.10
2024-04-30T23:05:59.513Z,3.00
2024-04-30T23:08:46.458Z,3.40
2024-04-30T23:11:33.459Z,3.42
2024-04-30T23:14:20.452Z,3.15
2024-04-30T23:17:07.459Z,3.20
2024-04-30T23:19:54.465Z,3.38
2024-04-30T23:22:41.470Z,3.13
2024-04-30T23:25:28.402Z,3.17
2024-04-30T23:28:15.402Z,3.22
2024-04-30T23:31:03.303Z,3.30
2024-04-30T23:33:51.524Z,3.10
2024-04-30T23:36:38.692Z,3.28
2024-04-30T23:39:25.875Z,3.40
2024-04-30T23:42:20.945Z,3.10
2024-04-30T23:45:10.204Z,3.20
2024-04-30T23:47:57.232Z,3.25
2024-04-30T23:50:44.206Z,3.33
2024-04-30T23:53:31.216Z,3.28
2024-04-30T23:56:18.177Z,3.65
2024-04-30T23:59:05.177Z,3.33
